sensor_id;sensor_type;location;lat;lon;timestamp;P1;durP1;ratioP1;P2;durP2;ratioP2
5696;SDS011;2873;50.966;7.210;2023-02-08T00:02:07;10.00;;;7.15;;
5696;SDS011;2873;50.966;7.210;2023-02-08T00:04:33;10.20;;;7.33;;
5696;SDS011;2873;50.966;7.210;2023-02-08T00:06:58;13.85;;;8.02;;
5696;SDS011;2873;50.966;7.210;2023-02-08T00:09:24;9.20;;;7.20;;
5696;SDS011;2873;50.966;7.210;2023-02-08T00:11:49;13.27;;;7.50;;
5696;SDS011;2873;50.966;7.210;2023-02-08T00:14:15;10.43;;;7.60;;
5696;SDS011;2873;50.966;7.210;2023-02-08T00:16:40;12.45;;;8.13;;
5696;SDS011;2873;50.966;7.210;2023-02-08T00:19:06;14.50;;;7.85;;
5696;SDS011;2873;50.966;7.210;2023-02-08T00:21:31;10.90;;;7.80;;
5696;SDS011;2873;50.966;7.210;2023-02-08T00:23:57;11.63;;;7.60;;
5696;SDS011;2873;50.966;7.210;2023-02-08T00:26:23;11.40;;;7.87;;
5696;SDS011;2873;50.966;7.210;2023-02-08T00:28:48;19.93;;;8.17;;
5696;SDS011;2873;50.966;7.210;2023-02-08T00:31:14;15.37;;;7.90;;
5696;SDS011;2873;50.966;7.210;2023-02-08T00:33:39;12.53;;;7.80;;
5696;SDS011;2873;50.966;7.210;2023-02-08T00:36:05;13.20;;;7.80;;
5696;SDS011;2873;50.966;7.210;2023-02-08T00:38:32;12.80;;;8.25;;
5696;SDS011;2873;50.966;7.210;2023-02-08T00:40:58;13.57;;;7.70;;
5696;SDS011;2873;50.966;7.210;2023-02-08T00:43:23;13.20;;;8.20;;
5696;SDS011;2873;50.966;7.210;2023-02-08T00:45:53;11.23;;;7.22;;
5696;SDS011;2873;50.966;7.210;2023-02-08T00:48:19;10.82;;;7.80;;
5696;SDS011;2873;50.966;7.210;2023-02-08T00:50:55;11.18;;;7.40;;
5696;SDS011;2873;50.966;7.210;2023-02-08T00:53:25;12.07;;;7.72;;
5696;SDS011;2873;50.966;7.210;2023-02-08T00:55:51;10.10;;;7.43;;
5696;SDS011;2873;50.966;7.210;2023-02-08T00:58:18;11.95;;;7.90;;
5696;SDS011;2873;50.966;7.210;2023-02-08T01:00:43;14.00;;;7.67;;
5696;SDS011;2873;50.966;7.210;2023-02-08T01:03:09;11.63;;;7.20;;
5696;SDS011;2873;50.966;7.210;2023-02-08T01:05:36;10.57;;;7.30;;
5696;SDS011;2873;50.966;7.210;2023-02-08T01:08:03;10.10;;;7.70;;
5696;SDS011;2873;50.966;7.210;2023-02-08T01:10:28;11.45;;;8.00;;
5696;SDS011;2873;50.966;7.210;2023-02-08T01:12:54;11.67;;;7.20;;
5696;SDS011;2873;50.966;7.210;2023-02-08T01:15:19;11.68;;;7.40;;
5696;SDS011;2873;50.966;7.210;2023-02-08T01:17:45;11.63;;;8.00;;
5696;SDS011;2873;50.966;7.210;2023-02-08T01:20:11;11.27;;;7.53;;
5696;SDS011;2873;50.966;7.210;2023-02-08T01:22:36;10.63;;;7.72;;
5696;SDS011;2873;50.966;7.210;2023-02-08T01:25:02;16.13;;;7.80;;
5696;SDS011;2873;50.966;7.210;2023-02-08T01:27:28;11.77;;;7.43;;
5696;SDS011;2873;50.966;7.210;2023-02-08T01:29:53;14.32;;;8.50;;
5696;SDS011;2873;50.966;7.210;2023-02-08T01:32:19;14.20;;;8.23;;
5696;SDS011;2873;50.966;7.210;2023-02-08T01:34:44;13.50;;;8.50;;
5696;SDS011;2873;50.966;7.210;2023-02-08T01:37:10;12.43;;;8.02;;
5696;SDS011;2873;50.966;7.210;2023-02-08T01:39:35;15.83;;;8.33;;
5696;SDS011;2873;50.966;7.210;2023-02-08T01:42:01;14.05;;;8.15;;
5696;SDS011;2873;50.966;7.210;2023-02-08T01:47:30;11.85;;;8.00;;
5696;SDS011;2873;50.966;7.210;2023-02-08T01:49:55;14.00;;;8.40;;
5696;SDS011;2873;50.966;7.210;2023-02-08T01:52:22;12.40;;;8.07;;
5696;SDS011;2873;50.966;7.210;2023-02-08T01:54:51;10.27;;;7.97;;
5696;SDS011;2873;50.966;7.210;2023-02-08T01:57:26;11.43;;;7.80;;
5696;SDS011;2873;50.966;7.210;2023-02-08T02:00:00;13.18;;;8.55;;
5696;SDS011;2873;50.966;7.210;2023-02-08T02:02:36;14.68;;;7.97;;
5696;SDS011;2873;50.966;7.210;2023-02-08T02:05:03;12.20;;;7.80;;
5696;SDS011;2873;50.966;7.210;2023-02-08T02:07:29;14.25;;;8.38;;
5696;SDS011;2873;50.966;7.210;2023-02-08T02:12:46;12.18;;;8.15;;
5696;SDS011;2873;50.966;7.210;2023-02-08T02:15:14;13.30;;;7.70;;
5696;SDS011;2873;50.966;7.210;2023-02-08T02:17:40;13.53;;;8.00;;
5696;SDS011;2873;50.966;7.210;2023-02-08T02:25:45;11.57;;;6.95;;
5696;SDS011;2873;50.966;7.210;2023-02-08T02:37:27;13.32;;;7.40;;
5696;SDS011;2873;50.966;7.210;2023-02-08T02:48:47;11.02;;;6.80;;
5696;SDS011;2873;50.966;7.210;2023-02-08T02:51:26;10.38;;;6.80;;
5696;SDS011;2873;50.966;7.210;2023-02-08T02:56:54;10.15;;;6.65;;
5696;SDS011;2873;50.966;7.210;2023-02-08T02:59:24;10.25;;;7.18;;
5696;SDS011;2873;50.966;7.210;2023-02-08T03:01:52;11.55;;;7.30;;
5696;SDS011;2873;50.966;7.210;2023-02-08T03:07:04;8.50;;;6.20;;
5696;SDS011;2873;50.966;7.210;2023-02-08T03:09:52;9.07;;;6.40;;
5696;SDS011;2873;50.966;7.210;2023-02-08T03:12:48;8.75;;;6.15;;
5696;SDS011;2873;50.966;7.210;2023-02-08T03:26:34;9.60;;;6.38;;
5696;SDS011;2873;50.966;7.210;2023-02-08T03:37:20;9.52;;;6.40;;
5696;SDS011;2873;50.966;7.210;2023-02-08T03:39:50;13.88;;;6.78;;
5696;SDS011;2873;50.966;7.210;2023-02-08T03:42:24;9.45;;;6.30;;
5696;SDS011;2873;50.966;7.210;2023-02-08T03:44:57;9.40;;;6.10;;
5696;SDS011;2873;50.966;7.210;2023-02-08T03:47:26;10.30;;;6.20;;
5696;SDS011;2873;50.966;7.210;2023-02-08T03:49:56;8.70;;;5.90;;
5696;SDS011;2873;50.966;7.210;2023-02-08T03:52:24;11.88;;;6.32;;
5696;SDS011;2873;50.966;7.210;2023-02-08T03:54:53;10.90;;;6.32;;
5696;SDS011;2873;50.966;7.210;2023-02-08T03:57:34;15.53;;;6.87;;
5696;SDS011;2873;50.966;7.210;2023-02-08T04:00:13;9.82;;;6.40;;
5696;SDS011;2873;50.966;7.210;2023-02-08T04:02:47;8.77;;;5.40;;
5696;SDS011;2873;50.966;7.210;2023-02-08T04:05:19;8.02;;;5.90;;
5696;SDS011;2873;50.966;7.210;2023-02-08T04:07:46;8.40;;;5.90;;
5696;SDS011;2873;50.966;7.210;2023-02-08T04:10:12;6.27;;;4.90;;
5696;SDS011;2873;50.966;7.210;2023-02-08T04:12:38;9.70;;;6.00;;
5696;SDS011;2873;50.966;7.210;2023-02-08T04:15:03;9.13;;;5.70;;
5696;SDS011;2873;50.966;7.210;2023-02-08T04:17:29;8.10;;;5.53;;
5696;SDS011;2873;50.966;7.210;2023-02-08T04:19:56;10.15;;;5.90;;
5696;SDS011;2873;50.966;7.210;2023-02-08T04:22:21;9.00;;;5.90;;
5696;SDS011;2873;50.966;7.210;2023-02-08T04:24:47;7.57;;;5.67;;
5696;SDS011;2873;50.966;7.210;2023-02-08T04:27:12;10.20;;;5.80;;
5696;SDS011;2873;50.966;7.210;2023-02-08T04:29:38;12.93;;;6.10;;
5696;SDS011;2873;50.966;7.210;2023-02-08T04:32:03;8.43;;;5.57;;
5696;SDS011;2873;50.966;7.210;2023-02-08T04:34:32;7.60;;;5.55;;
5696;SDS011;2873;50.966;7.210;2023-02-08T04:36:57;7.57;;;5.70;;
5696;SDS011;2873;50.966;7.210;2023-02-08T04:39:23;8.03;;;5.60;;
5696;SDS011;2873;50.966;7.210;2023-02-08T04:41:48;7.70;;;5.80;;
5696;SDS011;2873;50.966;7.210;2023-02-08T04:44:14;9.60;;;6.03;;
5696;SDS011;2873;50.966;7.210;2023-02-08T04:46:40;8.50;;;5.60;;
5696;SDS011;2873;50.966;7.210;2023-02-08T04:49:05;7.85;;;5.18;;
5696;SDS011;2873;50.966;7.210;2023-02-08T04:51:31;7.67;;;5.50;;
5696;SDS011;2873;50.966;7.210;2023-02-08T04:53:56;7.00;;;5.10;;
5696;SDS011;2873;50.966;7.210;2023-02-08T04:56:22;8.07;;;5.67;;
5696;SDS011;2873;50.966;7.210;2023-02-08T04:58:47;8.75;;;5.18;;
5696;SDS011;2873;50.966;7.210;2023-02-08T05:01:13;5.68;;;4.80;;
5696;SDS011;2873;50.966;7.210;2023-02-08T05:03:40;9.32;;;5.30;;
5696;SDS011;2873;50.966;7.210;2023-02-08T05:06:05;5.50;;;4.60;;
5696;SDS011;2873;50.966;7.210;2023-02-08T05:08:31;6.47;;;4.75;;
5696;SDS011;2873;50.966;7.210;2023-02-08T05:10:57;6.68;;;4.85;;
5696;SDS011;2873;50.966;7.210;2023-02-08T05:13:22;6.63;;;5.43;;
5696;SDS011;2873;50.966;7.210;2023-02-08T05:15:48;7.90;;;5.35;;
5696;SDS011;2873;50.966;7.210;2023-02-08T05:18:13;8.70;;;5.83;;
5696;SDS011;2873;50.966;7.210;2023-02-08T05:20:39;7.70;;;5.50;;
5696;SDS011;2873;50.966;7.210;2023-02-08T05:23:04;9.10;;;5.53;;
5696;SDS011;2873;50.966;7.210;2023-02-08T05:25:30;10.33;;;5.57;;
5696;SDS011;2873;50.966;7.210;2023-02-08T05:27:55;8.55;;;5.32;;
5696;SDS011;2873;50.966;7.210;2023-02-08T05:30:22;7.75;;;5.30;;
5696;SDS011;2873;50.966;7.210;2023-02-08T05:32:48;7.70;;;5.50;;
5696;SDS011;2873;50.966;7.210;2023-02-08T05:35:13;7.63;;;5.57;;
5696;SDS011;2873;50.966;7.210;2023-02-08T05:37:39;8.93;;;5.93;;
5696;SDS011;2873;50.966;7.210;2023-02-08T05:40:05;8.13;;;6.18;;
5696;SDS011;2873;50.966;7.210;2023-02-08T05:42:31;9.27;;;5.70;;
5696;SDS011;2873;50.966;7.210;2023-02-08T05:44:57;8.63;;;5.57;;
5696;SDS011;2873;50.966;7.210;2023-02-08T05:47:22;8.97;;;6.00;;
5696;SDS011;2873;50.966;7.210;2023-02-08T05:49:48;8.90;;;5.90;;
5696;SDS011;2873;50.966;7.210;2023-02-08T05:52:13;10.50;;;6.38;;
5696;SDS011;2873;50.966;7.210;2023-02-08T05:54:39;8.13;;;5.43;;
5696;SDS011;2873;50.966;7.210;2023-02-08T05:57:05;9.70;;;5.32;;
5696;SDS011;2873;50.966;7.210;2023-02-08T05:59:30;5.40;;;4.70;;
5696;SDS011;2873;50.966;7.210;2023-02-08T06:01:56;9.10;;;4.90;;
5696;SDS011;2873;50.966;7.210;2023-02-08T06:04:21;8.38;;;4.78;;
5696;SDS011;2873;50.966;7.210;2023-02-08T06:06:47;7.60;;;5.37;;
5696;SDS011;2873;50.966;7.210;2023-02-08T06:09:12;7.43;;;5.50;;
5696;SDS011;2873;50.966;7.210;2023-02-08T06:11:38;9.18;;;5.85;;
5696;SDS011;2873;50.966;7.210;2023-02-08T06:14:03;8.00;;;5.13;;
5696;SDS011;2873;50.966;7.210;2023-02-08T06:16:29;9.15;;;5.65;;
5696;SDS011;2873;50.966;7.210;2023-02-08T06:18:54;11.90;;;5.67;;
5696;SDS011;2873;50.966;7.210;2023-02-08T06:21:20;10.98;;;4.60;;
5696;SDS011;2873;50.966;7.210;2023-02-08T06:23:45;8.70;;;5.27;;
5696;SDS011;2873;50.966;7.210;2023-02-08T06:26:11;10.47;;;5.47;;
5696;SDS011;2873;50.966;7.210;2023-02-08T06:28:36;5.80;;;4.60;;
5696;SDS011;2873;50.966;7.210;2023-02-08T06:31:02;8.07;;;4.70;;
5696;SDS011;2873;50.966;7.210;2023-02-08T06:33:28;11.05;;;5.25;;
5696;SDS011;2873;50.966;7.210;2023-02-08T06:35:53;6.85;;;5.40;;
5696;SDS011;2873;50.966;7.210;2023-02-08T06:38:19;9.13;;;5.23;;
5696;SDS011;2873;50.966;7.210;2023-02-08T06:40:45;10.88;;;5.78;;
5696;SDS011;2873;50.966;7.210;2023-02-08T06:43:12;7.88;;;5.40;;
5696;SDS011;2873;50.966;7.210;2023-02-08T06:45:37;10.73;;;5.78;;
5696;SDS011;2873;50.966;7.210;2023-02-08T06:48:03;10.82;;;5.78;;
5696;SDS011;2873;50.966;7.210;2023-02-08T06:50:29;15.90;;;6.60;;
5696;SDS011;2873;50.966;7.210;2023-02-08T06:52:55;8.38;;;5.60;;
5696;SDS011;2873;50.966;7.210;2023-02-08T06:55:20;7.90;;;5.40;;
5696;SDS011;2873;50.966;7.210;2023-02-08T06:57:46;10.45;;;5.60;;
5696;SDS011;2873;50.966;7.210;2023-02-08T07:00:12;9.77;;;5.27;;
5696;SDS011;2873;50.966;7.210;2023-02-08T07:02:38;11.32;;;5.50;;
5696;SDS011;2873;50.966;7.210;2023-02-08T07:05:03;7.07;;;5.00;;
5696;SDS011;2873;50.966;7.210;2023-02-08T07:07:29;13.27;;;6.03;;
5696;SDS011;2873;50.966;7.210;2023-02-08T07:09:55;10.02;;;5.65;;
5696;SDS011;2873;50.966;7.210;2023-02-08T07:12:20;6.00;;;4.90;;
5696;SDS011;2873;50.966;7.210;2023-02-08T07:14:46;9.18;;;5.43;;
5696;SDS011;2873;50.966;7.210;2023-02-08T07:17:12;13.60;;;5.60;;
5696;SDS011;2873;50.966;7.210;2023-02-08T07:19:38;7.18;;;5.40;;
5696;SDS011;2873;50.966;7.210;2023-02-08T07:22:04;8.52;;;5.95;;
5696;SDS011;2873;50.966;7.210;2023-02-08T07:24:35;8.07;;;5.50;;
5696;SDS011;2873;50.966;7.210;2023-02-08T07:27:02;7.33;;;5.10;;
5696;SDS011;2873;50.966;7.210;2023-02-08T07:29:29;10.65;;;5.53;;
5696;SDS011;2873;50.966;7.210;2023-02-08T07:31:56;14.40;;;6.40;;
5696;SDS011;2873;50.966;7.210;2023-02-08T07:34:23;10.43;;;5.75;;
5696;SDS011;2873;50.966;7.210;2023-02-08T07:36:48;8.60;;;5.30;;
5696;SDS011;2873;50.966;7.210;2023-02-08T07:39:14;18.35;;;8.43;;
5696;SDS011;2873;50.966;7.210;2023-02-08T07:41:40;16.87;;;6.33;;
5696;SDS011;2873;50.966;7.210;2023-02-08T07:44:05;9.37;;;5.77;;
5696;SDS011;2873;50.966;7.210;2023-02-08T07:46:31;6.85;;;4.95;;
5696;SDS011;2873;50.966;7.210;2023-02-08T07:48:57;8.30;;;5.20;;
5696;SDS011;2873;50.966;7.210;2023-02-08T07:51:22;12.20;;;5.43;;
5696;SDS011;2873;50.966;7.210;2023-02-08T07:53:48;7.93;;;5.78;;
5696;SDS011;2873;50.966;7.210;2023-02-08T07:56:14;10.27;;;6.50;;
5696;SDS011;2873;50.966;7.210;2023-02-08T07:58:40;13.60;;;7.00;;
5696;SDS011;2873;50.966;7.210;2023-02-08T08:01:05;8.43;;;6.80;;
5696;SDS011;2873;50.966;7.210;2023-02-08T08:03:31;15.60;;;6.63;;
5696;SDS011;2873;50.966;7.210;2023-02-08T08:05:56;9.18;;;5.88;;
5696;SDS011;2873;50.966;7.210;2023-02-08T08:08:22;6.00;;;5.03;;
5696;SDS011;2873;50.966;7.210;2023-02-08T08:10:47;5.95;;;4.57;;
5696;SDS011;2873;50.966;7.210;2023-02-08T08:13:13;6.88;;;5.20;;
5696;SDS011;2873;50.966;7.210;2023-02-08T08:15:39;5.73;;;5.00;;
5696;SDS011;2873;50.966;7.210;2023-02-08T08:18:05;11.97;;;8.40;;
5696;SDS011;2873;50.966;7.210;2023-02-08T08:20:31;9.48;;;6.22;;
5696;SDS011;2873;50.966;7.210;2023-02-08T08:22:57;10.15;;;6.40;;
5696;SDS011;2873;50.966;7.210;2023-02-08T08:25:23;7.13;;;5.17;;
5696;SDS011;2873;50.966;7.210;2023-02-08T08:27:48;5.78;;;4.63;;
5696;SDS011;2873;50.966;7.210;2023-02-08T08:30:14;5.82;;;4.45;;
5696;SDS011;2873;50.966;7.210;2023-02-08T08:32:41;10.55;;;5.20;;
5696;SDS011;2873;50.966;7.210;2023-02-08T08:35:07;7.82;;;5.07;;
5696;SDS011;2873;50.966;7.210;2023-02-08T08:37:33;8.90;;;4.97;;
5696;SDS011;2873;50.966;7.210;2023-02-08T08:40:00;7.05;;;4.68;;
5696;SDS011;2873;50.966;7.210;2023-02-08T08:42:26;9.90;;;4.80;;
5696;SDS011;2873;50.966;7.210;2023-02-08T08:44:52;10.17;;;5.50;;
5696;SDS011;2873;50.966;7.210;2023-02-08T08:47:18;8.38;;;5.45;;
5696;SDS011;2873;50.966;7.210;2023-02-08T08:49:44;32.53;;;6.30;;
5696;SDS011;2873;50.966;7.210;2023-02-08T08:52:10;8.13;;;6.40;;
5696;SDS011;2873;50.966;7.210;2023-02-08T08:54:36;9.50;;;6.25;;
5696;SDS011;2873;50.966;7.210;2023-02-08T08:57:03;8.57;;;5.93;;
5696;SDS011;2873;50.966;7.210;2023-02-08T08:59:29;7.93;;;6.57;;
5696;SDS011;2873;50.966;7.210;2023-02-08T09:01:54;8.90;;;6.30;;
5696;SDS011;2873;50.966;7.210;2023-02-08T09:04:20;13.77;;;7.00;;
5696;SDS011;2873;50.966;7.210;2023-02-08T09:06:49;8.93;;;6.65;;
5696;SDS011;2873;50.966;7.210;2023-02-08T09:09:15;9.68;;;6.57;;
5696;SDS011;2873;50.966;7.210;2023-02-08T09:11:41;8.05;;;6.90;;
5696;SDS011;2873;50.966;7.210;2023-02-08T09:14:06;7.50;;;6.13;;
5696;SDS011;2873;50.966;7.210;2023-02-08T09:16:32;7.97;;;6.70;;
5696;SDS011;2873;50.966;7.210;2023-02-08T09:19:02;6.90;;;6.20;;
5696;SDS011;2873;50.966;7.210;2023-02-08T09:21:29;7.20;;;6.50;;
5696;SDS011;2873;50.966;7.210;2023-02-08T09:23:55;9.73;;;6.85;;
5696;SDS011;2873;50.966;7.210;2023-02-08T09:26:21;7.67;;;6.40;;
5696;SDS011;2873;50.966;7.210;2023-02-08T09:28:46;7.90;;;5.90;;
5696;SDS011;2873;50.966;7.210;2023-02-08T09:31:20;11.00;;;6.00;;
5696;SDS011;2873;50.966;7.210;2023-02-08T09:33:54;7.93;;;5.70;;
5696;SDS011;2873;50.966;7.210;2023-02-08T09:36:21;8.95;;;5.82;;
5696;SDS011;2873;50.966;7.210;2023-02-08T09:38:48;8.63;;;6.43;;
5696;SDS011;2873;50.966;7.210;2023-02-08T09:46:38;20.35;;;11.95;;
5696;SDS011;2873;50.966;7.210;2023-02-08T09:49:13;19.00;;;9.93;;
5696;SDS011;2873;50.966;7.210;2023-02-08T09:54:15;14.77;;;9.90;;
5696;SDS011;2873;50.966;7.210;2023-02-08T09:56:45;8.80;;;6.43;;
5696;SDS011;2873;50.966;7.210;2023-02-08T09:59:15;10.32;;;6.20;;
5696;SDS011;2873;50.966;7.210;2023-02-08T10:01:48;9.05;;;6.65;;
5696;SDS011;2873;50.966;7.210;2023-02-08T10:04:23;10.18;;;6.80;;
5696;SDS011;2873;50.966;7.210;2023-02-08T10:06:54;9.90;;;6.60;;
5696;SDS011;2873;50.966;7.210;2023-02-08T10:09:21;11.95;;;6.80;;
5696;SDS011;2873;50.966;7.210;2023-02-08T10:12:01;9.23;;;6.50;;
5696;SDS011;2873;50.966;7.210;2023-02-08T10:17:51;7.68;;;6.20;;
5696;SDS011;2873;50.966;7.210;2023-02-08T10:25:54;7.38;;;5.85;;
5696;SDS011;2873;50.966;7.210;2023-02-08T10:28:55;6.65;;;5.57;;
5696;SDS011;2873;50.966;7.210;2023-02-08T10:31:48;6.97;;;5.75;;
5696;SDS011;2873;50.966;7.210;2023-02-08T10:34:29;7.15;;;5.50;;
5696;SDS011;2873;50.966;7.210;2023-02-08T10:37:13;7.57;;;5.30;;
5696;SDS011;2873;50.966;7.210;2023-02-08T10:39:43;6.00;;;5.40;;
5696;SDS011;2873;50.966;7.210;2023-02-08T10:42:11;7.65;;;5.53;;
5696;SDS011;2873;50.966;7.210;2023-02-08T10:50:06;6.40;;;5.00;;
5696;SDS011;2873;50.966;7.210;2023-02-08T10:52:44;5.55;;;5.05;;
5696;SDS011;2873;50.966;7.210;2023-02-08T10:55:12;8.00;;;5.10;;
5696;SDS011;2873;50.966;7.210;2023-02-08T10:57:40;6.20;;;5.27;;
5696;SDS011;2873;50.966;7.210;2023-02-08T11:00:10;6.13;;;4.88;;
5696;SDS011;2873;50.966;7.210;2023-02-08T11:02:48;5.20;;;4.70;;
5696;SDS011;2873;50.966;7.210;2023-02-08T11:05:17;5.00;;;4.53;;
5696;SDS011;2873;50.966;7.210;2023-02-08T11:07:44;5.63;;;4.50;;
5696;SDS011;2873;50.966;7.210;2023-02-08T11:12:42;5.40;;;4.50;;
5696;SDS011;2873;50.966;7.210;2023-02-08T11:15:23;4.63;;;4.13;;
5696;SDS011;2873;50.966;7.210;2023-02-08T11:18:20;5.80;;;4.57;;
5696;SDS011;2873;50.966;7.210;2023-02-08T11:20:52;5.60;;;5.00;;
5696;SDS011;2873;50.966;7.210;2023-02-08T11:23:22;5.63;;;4.40;;
5696;SDS011;2873;50.966;7.210;2023-02-08T11:29:01;12.10;;;4.30;;
5696;SDS011;2873;50.966;7.210;2023-02-08T11:31:29;6.70;;;4.20;;
5696;SDS011;2873;50.966;7.210;2023-02-08T11:34:03;4.40;;;4.00;;
5696;SDS011;2873;50.966;7.210;2023-02-08T11:36:31;6.97;;;5.68;;
5696;SDS011;2873;50.966;7.210;2023-02-08T11:39:03;7.70;;;5.22;;
5696;SDS011;2873;50.966;7.210;2023-02-08T11:42:00;6.90;;;5.40;;
5696;SDS011;2873;50.966;7.210;2023-02-08T11:44:30;5.17;;;4.50;;
5696;SDS011;2873;50.966;7.210;2023-02-08T11:47:02;5.00;;;4.20;;
5696;SDS011;2873;50.966;7.210;2023-02-08T11:49:41;7.60;;;4.05;;
5696;SDS011;2873;50.966;7.210;2023-02-08T11:52:25;5.28;;;3.95;;
5696;SDS011;2873;50.966;7.210;2023-02-08T11:54:54;4.72;;;4.22;;
5696;SDS011;2873;50.966;7.210;2023-02-08T12:00:35;4.37;;;3.97;;
5696;SDS011;2873;50.966;7.210;2023-02-08T12:03:12;4.00;;;3.60;;
5696;SDS011;2873;50.966;7.210;2023-02-08T12:08:22;5.00;;;4.50;;
5696;SDS011;2873;50.966;7.210;2023-02-08T12:11:18;5.70;;;4.47;;
5696;SDS011;2873;50.966;7.210;2023-02-08T12:21:59;4.60;;;4.10;;
5696;SDS011;2873;50.966;7.210;2023-02-08T12:38:16;4.87;;;4.10;;
5696;SDS011;2873;50.966;7.210;2023-02-08T12:41:22;5.50;;;3.88;;
5696;SDS011;2873;50.966;7.210;2023-02-08T12:44:13;4.20;;;3.80;;
5696;SDS011;2873;50.966;7.210;2023-02-08T12:49:40;4.27;;;3.80;;
5696;SDS011;2873;50.966;7.210;2023-02-08T12:54:51;4.03;;;3.55;;
5696;SDS011;2873;50.966;7.210;2023-02-08T12:57:23;4.50;;;4.10;;
5696;SDS011;2873;50.966;7.210;2023-02-08T13:02:41;4.63;;;3.95;;
5696;SDS011;2873;50.966;7.210;2023-02-08T13:05:19;4.80;;;3.90;;
5696;SDS011;2873;50.966;7.210;2023-02-08T13:07:47;5.03;;;4.57;;
5696;SDS011;2873;50.966;7.210;2023-02-08T13:12:45;4.10;;;3.70;;
5696;SDS011;2873;50.966;7.210;2023-02-08T13:15:21;3.90;;;3.50;;
5696;SDS011;2873;50.966;7.210;2023-02-08T13:17:56;5.00;;;4.20;;
5696;SDS011;2873;50.966;7.210;2023-02-08T13:20:58;4.00;;;3.60;;
5696;SDS011;2873;50.966;7.210;2023-02-08T13:23:18;4.07;;;3.55;;
5696;SDS011;2873;50.966;7.210;2023-02-08T13:25:55;5.13;;;3.85;;
5696;SDS011;2873;50.966;7.210;2023-02-08T13:28:23;5.15;;;4.00;;
5696;SDS011;2873;50.966;7.210;2023-02-08T13:36:26;4.20;;;3.80;;
5696;SDS011;2873;50.966;7.210;2023-02-08T13:39:02;5.07;;;4.28;;
5696;SDS011;2873;50.966;7.210;2023-02-08T13:41:29;4.60;;;3.60;;
5696;SDS011;2873;50.966;7.210;2023-02-08T13:44:02;4.07;;;3.70;;
5696;SDS011;2873;50.966;7.210;2023-02-08T13:46:46;3.30;;;3.00;;
5696;SDS011;2873;50.966;7.210;2023-02-08T13:58:01;3.40;;;3.13;;
5696;SDS011;2873;50.966;7.210;2023-02-08T14:00:27;3.00;;;2.70;;
5696;SDS011;2873;50.966;7.210;2023-02-08T14:03:02;3.92;;;3.30;;
5696;SDS011;2873;50.966;7.210;2023-02-08T14:08:21;4.10;;;2.97;;
5696;SDS011;2873;50.966;7.210;2023-02-08T14:10:50;3.13;;;2.83;;
5696;SDS011;2873;50.966;7.210;2023-02-08T14:13:35;2.70;;;2.50;;
5696;SDS011;2873;50.966;7.210;2023-02-08T14:16:26;3.08;;;2.88;;
5696;SDS011;2873;50.966;7.210;2023-02-08T14:21:45;2.60;;;2.40;;
5696;SDS011;2873;50.966;7.210;2023-02-08T14:26:48;5.78;;;2.47;;
5696;SDS011;2873;50.966;7.210;2023-02-08T14:29:18;3.47;;;2.70;;
5696;SDS011;2873;50.966;7.210;2023-02-08T14:31:48;3.67;;;2.50;;
5696;SDS011;2873;50.966;7.210;2023-02-08T14:36:52;2.90;;;2.70;;
5696;SDS011;2873;50.966;7.210;2023-02-08T14:39:31;4.23;;;2.80;;
5696;SDS011;2873;50.966;7.210;2023-02-08T14:47:03;3.08;;;2.78;;
5696;SDS011;2873;50.966;7.210;2023-02-08T14:49:35;2.90;;;2.70;;
5696;SDS011;2873;50.966;7.210;2023-02-08T14:52:05;2.60;;;2.40;;
5696;SDS011;2873;50.966;7.210;2023-02-08T14:54:47;3.40;;;3.10;;
5696;SDS011;2873;50.966;7.210;2023-02-08T14:59:56;4.15;;;2.80;;
5696;SDS011;2873;50.966;7.210;2023-02-08T15:02:24;2.67;;;2.47;;
5696;SDS011;2873;50.966;7.210;2023-02-08T15:04:55;3.20;;;2.50;;
5696;SDS011;2873;50.966;7.210;2023-02-08T15:07:34;2.80;;;2.60;;
5696;SDS011;2873;50.966;7.210;2023-02-08T15:10:10;2.45;;;2.20;;
5696;SDS011;2873;50.966;7.210;2023-02-08T15:12:37;3.20;;;2.90;;
5696;SDS011;2873;50.966;7.210;2023-02-08T15:15:04;3.22;;;2.90;;
5696;SDS011;2873;50.966;7.210;2023-02-08T15:17:45;4.93;;;2.10;;
5696;SDS011;2873;50.966;7.210;2023-02-08T15:20:20;4.55;;;2.20;;
5696;SDS011;2873;50.966;7.210;2023-02-08T15:23:01;3.53;;;2.00;;
5696;SDS011;2873;50.966;7.210;2023-02-08T15:25:31;2.97;;;2.28;;
5696;SDS011;2873;50.966;7.210;2023-02-08T15:28:03;2.72;;;2.15;;
5696;SDS011;2873;50.966;7.210;2023-02-08T15:30:43;2.20;;;1.70;;
5696;SDS011;2873;50.966;7.210;2023-02-08T15:33:13;2.05;;;1.95;;
5696;SDS011;2873;50.966;7.210;2023-02-08T15:35:41;2.35;;;2.15;;
5696;SDS011;2873;50.966;7.210;2023-02-08T15:38:13;2.22;;;2.10;;
5696;SDS011;2873;50.966;7.210;2023-02-08T15:40:42;5.05;;;2.88;;
5696;SDS011;2873;50.966;7.210;2023-02-08T15:45:33;3.38;;;2.60;;
5696;SDS011;2873;50.966;7.210;2023-02-08T15:47:59;2.10;;;2.00;;
5696;SDS011;2873;50.966;7.210;2023-02-08T15:50:27;4.30;;;2.20;;
5696;SDS011;2873;50.966;7.210;2023-02-08T15:52:57;3.30;;;2.03;;
5696;SDS011;2873;50.966;7.210;2023-02-08T15:55:47;2.58;;;2.20;;
5696;SDS011;2873;50.966;7.210;2023-02-08T15:58:18;12.32;;;4.30;;
5696;SDS011;2873;50.966;7.210;2023-02-08T16:00:52;11.55;;;4.22;;
5696;SDS011;2873;50.966;7.210;2023-02-08T16:03:20;9.80;;;3.90;;
5696;SDS011;2873;50.966;7.210;2023-02-08T16:05:48;3.53;;;2.65;;
5696;SDS011;2873;50.966;7.210;2023-02-08T16:08:17;3.60;;;2.87;;
5696;SDS011;2873;50.966;7.210;2023-02-08T16:10:46;6.93;;;4.35;;
5696;SDS011;2873;50.966;7.210;2023-02-08T16:13:23;4.65;;;2.45;;
5696;SDS011;2873;50.966;7.210;2023-02-08T16:15:53;3.10;;;2.42;;
5696;SDS011;2873;50.966;7.210;2023-02-08T16:18:41;3.75;;;2.90;;
5696;SDS011;2873;50.966;7.210;2023-02-08T16:21:21;3.45;;;2.58;;
5696;SDS011;2873;50.966;7.210;2023-02-08T16:26:40;6.32;;;4.00;;
5696;SDS011;2873;50.966;7.210;2023-02-08T16:31:58;11.48;;;4.68;;
5696;SDS011;2873;50.966;7.210;2023-02-08T16:34:27;5.68;;;3.45;;
5696;SDS011;2873;50.966;7.210;2023-02-08T16:36:55;4.32;;;3.20;;
5696;SDS011;2873;50.966;7.210;2023-02-08T16:39:38;2.90;;;2.67;;
5696;SDS011;2873;50.966;7.210;2023-02-08T16:42:18;3.33;;;3.00;;
5696;SDS011;2873;50.966;7.210;2023-02-08T16:45:00;4.28;;;3.20;;
5696;SDS011;2873;50.966;7.210;2023-02-08T16:47:51;3.60;;;3.30;;
5696;SDS011;2873;50.966;7.210;2023-02-08T16:50:20;7.18;;;3.50;;
5696;SDS011;2873;50.966;7.210;2023-02-08T16:52:48;14.07;;;4.25;;
5696;SDS011;2873;50.966;7.210;2023-02-08T16:55:21;4.40;;;3.20;;
5696;SDS011;2873;50.966;7.210;2023-02-08T16:57:54;3.75;;;2.90;;
5696;SDS011;2873;50.966;7.210;2023-02-08T17:02:49;5.10;;;4.00;;
5696;SDS011;2873;50.966;7.210;2023-02-08T17:05:15;6.50;;;3.58;;
5696;SDS011;2873;50.966;7.210;2023-02-08T17:07:41;8.90;;;4.70;;
5696;SDS011;2873;50.966;7.210;2023-02-08T17:10:10;6.65;;;4.70;;
5696;SDS011;2873;50.966;7.210;2023-02-08T17:12:42;14.40;;;4.30;;
5696;SDS011;2873;50.966;7.210;2023-02-08T17:15:07;5.47;;;4.33;;
5696;SDS011;2873;50.966;7.210;2023-02-08T17:17:33;12.93;;;5.68;;
5696;SDS011;2873;50.966;7.210;2023-02-08T17:19:59;11.55;;;5.60;;
5696;SDS011;2873;50.966;7.210;2023-02-08T17:22:24;9.90;;;5.30;;
5696;SDS011;2873;50.966;7.210;2023-02-08T17:24:50;13.25;;;5.78;;
5696;SDS011;2873;50.966;7.210;2023-02-08T17:27:16;7.78;;;5.07;;
5696;SDS011;2873;50.966;7.210;2023-02-08T17:29:42;9.23;;;6.00;;
5696;SDS011;2873;50.966;7.210;2023-02-08T17:32:07;14.63;;;7.38;;
5696;SDS011;2873;50.966;7.210;2023-02-08T17:34:33;12.20;;;7.57;;
5696;SDS011;2873;50.966;7.210;2023-02-08T17:37:00;38.20;;;20.47;;
5696;SDS011;2873;50.966;7.210;2023-02-08T17:39:26;33.33;;;16.92;;
5696;SDS011;2873;50.966;7.210;2023-02-08T17:41:51;29.88;;;15.05;;
5696;SDS011;2873;50.966;7.210;2023-02-08T17:44:17;19.80;;;9.83;;
5696;SDS011;2873;50.966;7.210;2023-02-08T17:46:44;17.52;;;6.90;;
5696;SDS011;2873;50.966;7.210;2023-02-08T17:49:10;17.83;;;9.40;;
5696;SDS011;2873;50.966;7.210;2023-02-08T17:51:35;27.17;;;13.13;;
5696;SDS011;2873;50.966;7.210;2023-02-08T17:54:04;22.90;;;11.35;;
5696;SDS011;2873;50.966;7.210;2023-02-08T17:56:29;24.77;;;12.02;;
5696;SDS011;2873;50.966;7.210;2023-02-08T17:58:59;37.80;;;16.75;;
5696;SDS011;2873;50.966;7.210;2023-02-08T18:01:27;10.95;;;6.35;;
5696;SDS011;2873;50.966;7.210;2023-02-08T18:03:53;9.05;;;5.47;;
5696;SDS011;2873;50.966;7.210;2023-02-08T18:06:19;8.10;;;5.47;;
5696;SDS011;2873;50.966;7.210;2023-02-08T18:08:47;7.72;;;5.40;;